Airfield :
LOGIN :

Register | Disclaimer

   EN    FR    IT 

 










Legend :    VFR   Marginal VFR   IFR   Intensive IFR   Very Intensive IFR
Visi :
Ceiling :
>= 8 km
>= 3000ft
5 to 8 km
1000 to 3000 ft
1500m to 5 km
500 to 1000 ft
800 to 1500m
200 to 500 ft
< 800m
< 200 ft
Symbols :   Thunderstorms  Fog  Heavy snow  Heavy precipitations  Wind > 20 kt
SIGMETs :     Misc.  Thunderstorms  Icing  Turbulence  Mountain Waves  Volcanic Ashes







- Airport Elevation : 374 ft
- IATA code : LIS


LPPT - Lisboa Portela

CURRENT METAR :
  • 252100Z 22010KT 9999 FEW024 SCT030 10/06 Q1012

EXPIRED METARs :
  • 252030Z 21008KT 9999 -SHRA FEW024 BKN038 10/07 Q1012
  • 252000Z 22010KT 9999 FEW040 11/06 Q1012
  • 251930Z 22009KT 9999 FEW025 SCT038 11/07 Q1011
  • 251900Z 22009KT 9999 SCT027 FEW030TCU 10/07 Q1011

TAF TAF LPPT
Valid from the 25 at 18:00 until the 27 at 00:00 UTC


251700Z 2518/2624 23013KT 9999 SCT030
TEMPO 2518/2609 8000 SHRA SCT008 BKN015 FEW025CB
BECMG 2606/2609 16013KT BKN020
TEMPO 2609/2622 5000 SHRA SCT006 BKN012 FEW018CB
PROB30
TEMPO 2612/2620 VRB20G32KT 3000 TSRA SCT018CB
BECMG 2620/2622 VRB05KT
No reported NOTAMs for that airfield.



MET'MAP, your aeronautical weather chart ! - Copyright ORBIFLY December 2007 - Disclaimer

ORBIFLY MET'MAP TEAM :

Programming & Development : Alexandra Zaïnal
Concept & Development : Baudouin d'Aumeries
Co-Development & Prog : Marc-Olivier Méhu
Technical & hardware support : Manuel Goepfert

Contact : metmap@orbifly.com




SOURCES & CREDITS :

   NOAA